Time;durP1;ratioP1;P1;durP2;ratioP2;P2;SDS_P1;SDS_P2;PMS_P1;PMS_P2;Temp;Humidity;BMP_temperature;BMP_pressure;BME280_temperature;BME280_humidity;BME280_pressure;Samples;Min_cycle;Max_cycle;Signal;HPM_P1;HPM_P2
2022/10/18 00:01:07;;;;;;;16.73;9.65;;;;;;;;;;5070267;28;20120;-39
2022/10/18 00:03:33;;;;;;;17.42;9.40;;;;;;;;;;5071461;28;20454;-39
2022/10/18 00:05:58;;;;;;;19.90;8.90;;;;;;;;;;5071467;28;20032;-40
2022/10/18 00:08:24;;;;;;;17.63;9.13;;;;;;;;;;5071608;28;20058;-40
2022/10/18 00:10:50;;;;;;;15.48;8.77;;;;;;;;;;5071403;28;20078;-40
2022/10/18 00:13:16;;;;;;;13.80;8.32;;;;;;;;;;5071487;28;20801;-40
2022/10/18 00:15:51;;;;;;;14.82;8.25;;;;;;;;;;5071227;28;20032;-40
2022/10/18 00:18:16;;;;;;;15.27;8.20;;;;;;;;;;5071455;28;20041;-41
2022/10/18 00:20:42;;;;;;;16.80;8.30;;;;;;;;;;5071594;28;20017;-40
2022/10/18 00:23:07;;;;;;;17.10;8.38;;;;;;;;;;5071338;28;20029;-40
2022/10/18 00:25:33;;;;;;;17.58;9.55;;;;;;;;;;5071313;28;20451;-40
2022/10/18 00:27:58;;;;;;;20.40;9.27;;;;;;;;;;5072251;28;20024;-40
2022/10/18 00:30:24;;;;;;;14.95;7.95;;;;;;;;;;5075445;28;20034;-40
2022/10/18 00:32:49;;;;;;;13.32;7.28;;;;;;;;;;5075561;28;20025;-40
2022/10/18 00:35:14;;;;;;;13.82;7.22;;;;;;;;;;5075270;28;20499;-40
2022/10/18 00:37:40;;;;;;;14.55;8.90;;;;;;;;;;5075466;28;20063;-40
2022/10/18 00:40:06;;;;;;;20.70;8.55;;;;;;;;;;5075266;28;20475;-40
2022/10/18 00:42:32;;;;;;;18.63;8.68;;;;;;;;;;5075250;28;20029;-40
2022/10/18 00:45:11;;;;;;;15.40;8.88;;;;;;;;;;5075296;28;20022;-39
2022/10/18 00:47:37;;;;;;;14.90;8.90;;;;;;;;;;5075136;28;20218;-40
2022/10/18 00:50:04;;;;;;;15.20;8.80;;;;;;;;;;5075313;28;20040;-40
2022/10/18 00:52:38;;;;;;;15.38;7.80;;;;;;;;;;5074936;28;20417;-39
2022/10/18 00:55:04;;;;;;;12.63;7.75;;;;;;;;;;5075024;28;20071;-40
2022/10/18 00:57:30;;;;;;;16.35;9.02;;;;;;;;;;5075149;28;20020;-40
2022/10/18 00:59:56;;;;;;;16.23;7.57;;;;;;;;;;5075094;28;20025;-40
2022/10/18 01:02:21;;;;;;;16.48;8.95;;;;;;;;;;5074846;28;20016;-40
2022/10/18 01:04:47;;;;;;;15.40;8.15;;;;;;;;;;5074686;28;20027;-40
2022/10/18 01:07:26;;;;;;;25.30;11.00;;;;;;;;;;5074675;28;20020;-40
2022/10/18 01:09:58;;;;;;;19.83;9.68;;;;;;;;;;5074789;28;20151;-40
2022/10/18 01:12:42;;;;;;;20.60;9.75;;;;;;;;;;5074556;28;20120;-40
2022/10/18 01:15:26;;;;;;;16.52;9.20;;;;;;;;;;5074878;28;20151;-40
2022/10/18 01:17:51;;;;;;;15.65;8.50;;;;;;;;;;5074359;28;20041;-40
2022/10/18 01:20:39;;;;;;;15.68;9.35;;;;;;;;;;5074792;28;20024;-43
2022/10/18 01:23:09;;;;;;;15.70;8.73;;;;;;;;;;5074340;28;20067;-39
2022/10/18 01:25:34;;;;;;;15.05;9.93;;;;;;;;;;5074650;28;20021;-40
2022/10/18 01:28:15;;;;;;;13.27;7.75;;;;;;;;;;5074181;28;20390;-45
2022/10/18 01:30:49;;;;;;;16.60;9.15;;;;;;;;;;5074283;28;20055;-40
2022/10/18 01:33:21;;;;;;;13.38;7.60;;;;;;;;;;5074573;28;20045;-40
2022/10/18 01:35:49;;;;;;;17.53;7.63;;;;;;;;;;5074005;28;20045;-40
2022/10/18 01:38:16;;;;;;;18.23;9.02;;;;;;;;;;5074312;28;20036;-40
2022/10/18 01:40:44;;;;;;;18.65;8.60;;;;;;;;;;5074165;28;20028;-40
2022/10/18 01:43:10;;;;;;;20.90;9.85;;;;;;;;;;5074192;28;20099;-40
2022/10/18 01:45:35;;;;;;;13.32;7.70;;;;;;;;;;5073987;28;20433;-40
2022/10/18 01:48:01;;;;;;;13.50;7.53;;;;;;;;;;5073837;28;20020;-39
2022/10/18 01:50:28;;;;;;;17.02;8.65;;;;;;;;;;5073965;28;20028;-40
2022/10/18 01:52:53;;;;;;;12.68;7.65;;;;;;;;;;5073840;28;20061;-39
2022/10/18 01:55:21;;;;;;;18.50;7.57;;;;;;;;;;5073799;28;20483;-40
2022/10/18 01:57:56;;;;;;;15.73;8.32;;;;;;;;;;5073708;28;20092;-40
2022/10/18 02:00:23;;;;;;;15.25;8.68;;;;;;;;;;5074037;28;20109;-39
2022/10/18 02:02:55;;;;;;;17.95;9.02;;;;;;;;;;5073612;28;20047;-40
2022/10/18 02:05:23;;;;;;;14.95;8.07;;;;;;;;;;5073943;28;20098;-40
2022/10/18 02:08:07;;;;;;;17.70;8.15;;;;;;;;;;5073462;28;20107;-40
2022/10/18 02:10:37;;;;;;;14.73;8.38;;;;;;;;;;5073776;28;20051;-40
2022/10/18 02:13:02;;;;;;;15.90;8.52;;;;;;;;;;5073677;28;20033;-40
2022/10/18 02:15:34;;;;;;;17.23;8.43;;;;;;;;;;5073473;28;20391;-40
2022/10/18 02:18:00;;;;;;;24.85;9.68;;;;;;;;;;5073668;28;20025;-40
2022/10/18 02:20:27;;;;;;;18.20;8.98;;;;;;;;;;5073513;28;20070;-40
2022/10/18 02:22:54;;;;;;;16.90;8.82;;;;;;;;;;5073243;28;20090;-40
2022/10/18 02:25:21;;;;;;;19.48;10.00;;;;;;;;;;5073320;28;20533;-40
2022/10/18 02:27:46;;;;;;;15.90;8.45;;;;;;;;;;5073081;28;20044;-40
2022/10/18 02:30:14;;;;;;;15.10;9.25;;;;;;;;;;5073084;28;20038;-39
2022/10/18 02:32:49;;;;;;;14.75;8.98;;;;;;;;;;5073366;28;20052;-40
2022/10/18 02:35:14;;;;;;;16.13;7.97;;;;;;;;;;5073095;28;20049;-39
2022/10/18 02:37:40;;;;;;;15.77;9.38;;;;;;;;;;5072925;28;20465;-40
2022/10/18 02:40:07;;;;;;;16.00;8.88;;;;;;;;;;5072997;28;20024;-40
2022/10/18 02:42:34;;;;;;;12.05;7.43;;;;;;;;;;5073203;28;20127;-40
2022/10/18 02:44:59;;;;;;;15.10;8.38;;;;;;;;;;5073095;28;20103;-40
2022/10/18 02:47:25;;;;;;;17.85;9.50;;;;;;;;;;5072812;28;20032;-40
2022/10/18 02:49:50;;;;;;;19.88;8.57;;;;;;;;;;5072678;28;20040;-39
2022/10/18 02:52:15;;;;;;;15.85;8.50;;;;;;;;;;5072402;28;20016;-40
2022/10/18 02:54:41;;;;;;;15.63;9.05;;;;;;;;;;5072622;28;20035;-39
2022/10/18 02:57:07;;;;;;;18.23;9.27;;;;;;;;;;5072737;28;20019;-39
2022/10/18 02:59:32;;;;;;;16.15;7.85;;;;;;;;;;5072551;28;20078;-40
2022/10/18 03:01:58;;;;;;;19.05;8.77;;;;;;;;;;5072577;28;20036;-40
2022/10/18 03:04:23;;;;;;;13.30;8.80;;;;;;;;;;5071213;28;20036;-40
2022/10/18 03:06:48;;;;;;;16.63;9.35;;;;;;;;;;5071128;28;20485;-46
2022/10/18 03:09:14;;;;;;;13.38;8.15;;;;;;;;;;5072376;28;20040;-43
2022/10/18 03:11:39;;;;;;;15.55;8.43;;;;;;;;;;5072358;28;20059;-40
2022/10/18 03:14:05;;;;;;;14.35;8.20;;;;;;;;;;5072323;28;20040;-39
2022/10/18 03:16:30;;;;;;;11.50;7.25;;;;;;;;;;5072537;28;20020;-40
2022/10/18 03:18:56;;;;;;;16.65;8.32;;;;;;;;;;5072448;28;20378;-39
2022/10/18 03:21:21;;;;;;;16.92;8.98;;;;;;;;;;5072475;28;20122;-40
2022/10/18 03:23:47;;;;;;;23.95;9.85;;;;;;;;;;5072038;28;20032;-39
2022/10/18 03:26:12;;;;;;;12.68;7.32;;;;;;;;;;5072146;28;20024;-40
2022/10/18 03:28:37;;;;;;;36.63;9.38;;;;;;;;;;5071952;28;20024;-40
2022/10/18 03:31:03;;;;;;;13.23;7.63;;;;;;;;;;5071939;28;20024;-40
2022/10/18 03:33:29;;;;;;;13.60;7.95;;;;;;;;;;5071965;28;20355;-40
2022/10/18 03:35:54;;;;;;;15.35;7.85;;;;;;;;;;5071659;28;20126;-45
2022/10/18 03:38:20;;;;;;;15.88;8.45;;;;;;;;;;5072230;28;20044;-40
2022/10/18 03:40:46;;;;;;;15.27;8.32;;;;;;;;;;5072056;28;20058;-39
2022/10/18 03:43:11;;;;;;;15.55;8.13;;;;;;;;;;5071698;28;20581;-40
2022/10/18 03:45:36;;;;;;;14.32;8.00;;;;;;;;;;5071794;28;20024;-39
2022/10/18 03:48:02;;;;;;;17.98;7.95;;;;;;;;;;5071637;28;20082;-40
2022/10/18 03:50:27;;;;;;;14.60;7.88;;;;;;;;;;5071703;28;20047;-40
2022/10/18 03:52:54;;;;;;;26.30;8.80;;;;;;;;;;5071601;28;20056;-41
2022/10/18 03:55:19;;;;;;;12.63;7.20;;;;;;;;;;5071613;28;20416;-40
2022/10/18 03:57:45;;;;;;;13.65;9.57;;;;;;;;;;5071781;28;20355;-39
2022/10/18 04:00:11;;;;;;;19.00;9.50;;;;;;;;;;5071727;28;20796;-40
2022/10/18 04:02:40;;;;;;;16.10;7.75;;;;;;;;;;5070708;28;20081;-40
2022/10/18 04:05:06;;;;;;;15.60;8.48;;;;;;;;;;5071783;28;20099;-39
2022/10/18 04:07:32;;;;;;;20.05;9.90;;;;;;;;;;5071753;28;20036;-40
2022/10/18 04:09:57;;;;;;;19.05;7.95;;;;;;;;;;5069995;28;20506;-39
2022/10/18 04:12:23;;;;;;;18.52;9.23;;;;;;;;;;5071499;28;20157;-40
2022/10/18 04:14:48;;;;;;;14.25;7.72;;;;;;;;;;5071652;28;20145;-40
2022/10/18 04:17:14;;;;;;;14.00;8.65;;;;;;;;;;5071307;28;20383;-40
2022/10/18 04:19:39;;;;;;;19.98;8.10;;;;;;;;;;5071658;28;20119;-39
2022/10/18 04:22:05;;;;;;;12.57;7.63;;;;;;;;;;5071139;28;20479;-39
2022/10/18 04:24:30;;;;;;;17.15;9.45;;;;;;;;;;5071314;28;20070;-39
2022/10/18 04:26:56;;;;;;;16.25;8.00;;;;;;;;;;5071487;28;20051;-40
2022/10/18 04:29:21;;;;;;;17.35;9.18;;;;;;;;;;5071497;28;20470;-40
2022/10/18 04:31:47;;;;;;;15.30;8.00;;;;;;;;;;5071417;28;20029;-39
2022/10/18 04:34:12;;;;;;;15.43;8.52;;;;;;;;;;5071207;28;20040;-40
2022/10/18 04:36:38;;;;;;;12.93;7.75;;;;;;;;;;5071104;28;20040;-40
2022/10/18 04:39:03;;;;;;;15.18;8.95;;;;;;;;;;5071289;28;20445;-40
2022/10/18 04:41:28;;;;;;;16.27;8.63;;;;;;;;;;5071240;28;20052;-40
2022/10/18 04:43:54;;;;;;;16.02;8.43;;;;;;;;;;5071151;28;20055;-40
2022/10/18 04:46:19;;;;;;;14.95;9.05;;;;;;;;;;5071051;28;20028;-39
2022/10/18 04:48:45;;;;;;;15.35;8.18;;;;;;;;;;5071251;28;20487;-40
2022/10/18 04:51:10;;;;;;;13.55;7.90;;;;;;;;;;5071364;28;20293;-40
2022/10/18 04:53:36;;;;;;;16.77;7.85;;;;;;;;;;5071263;28;20386;-39
2022/10/18 04:56:01;;;;;;;19.15;9.07;;;;;;;;;;5071213;28;20083;-39
2022/10/18 04:58:26;;;;;;;15.30;7.22;;;;;;;;;;5071014;28;20047;-39
2022/10/18 05:00:52;;;;;;;15.30;8.40;;;;;;;;;;5070890;28;20047;-40
2022/10/18 05:03:17;;;;;;;12.70;8.00;;;;;;;;;;5071346;28;20086;-40
2022/10/18 05:05:44;;;;;;;12.95;7.88;;;;;;;;;;5070886;28;20466;-40
2022/10/18 05:08:10;;;;;;;18.67;8.98;;;;;;;;;;5070918;28;20024;-40
2022/10/18 05:10:36;;;;;;;14.00;8.10;;;;;;;;;;5071189;28;20037;-39
2022/10/18 05:13:02;;;;;;;13.52;8.38;;;;;;;;;;5070901;28;20025;-40
2022/10/18 05:15:27;;;;;;;11.02;7.45;;;;;;;;;;5074075;28;20029;-39
2022/10/18 05:17:53;;;;;;;14.07;7.97;;;;;;;;;;5074442;28;20104;-40
2022/10/18 05:20:18;;;;;;;18.35;9.00;;;;;;;;;;5074620;28;20035;-40
2022/10/18 05:22:44;;;;;;;15.98;8.30;;;;;;;;;;5074565;28;20102;-39
2022/10/18 05:25:10;;;;;;;17.90;8.27;;;;;;;;;;5074441;28;20478;-40
2022/10/18 05:27:35;;;;;;;20.23;8.63;;;;;;;;;;5074506;28;20020;-40
2022/10/18 05:30:01;;;;;;;13.30;8.00;;;;;;;;;;5074148;28;20041;-40
2022/10/18 05:32:26;;;;;;;12.95;7.50;;;;;;;;;;5074621;28;20116;-40
2022/10/18 05:34:52;;;;;;;16.70;9.45;;;;;;;;;;5074018;28;20561;-41
2022/10/18 05:37:17;;;;;;;14.73;7.90;;;;;;;;;;5074204;28;20035;-40
2022/10/18 05:39:43;;;;;;;14.57;7.75;;;;;;;;;;5074114;28;20028;-40
2022/10/18 05:42:09;;;;;;;17.70;7.38;;;;;;;;;;5074109;28;20039;-39
2022/10/18 05:44:34;;;;;;;14.95;8.10;;;;;;;;;;5074065;28;20032;-40
2022/10/18 05:47:00;;;;;;;13.23;8.68;;;;;;;;;;5073931;28;20013;-39
2022/10/18 05:49:25;;;;;;;16.48;8.55;;;;;;;;;;5073993;28;20028;-40
2022/10/18 05:51:51;;;;;;;14.38;7.47;;;;;;;;;;5073902;28;20025;-40
2022/10/18 05:54:16;;;;;;;14.18;8.48;;;;;;;;;;5074213;28;20028;-40
2022/10/18 05:56:42;;;;;;;13.38;7.53;;;;;;;;;;5073804;28;20016;-39
2022/10/18 05:59:10;;;;;;;15.98;7.90;;;;;;;;;;5073779;28;20025;-40
2022/10/18 06:01:40;;;;;;;15.35;8.50;;;;;;;;;;5073717;28;20027;-41
2022/10/18 06:04:05;;;;;;;12.73;7.18;;;;;;;;;;5073655;28;20024;-40
2022/10/18 06:06:31;;;;;;;12.88;7.47;;;;;;;;;;5073670;28;20462;-40
2022/10/18 06:08:57;;;;;;;13.43;7.50;;;;;;;;;;5073798;28;20041;-40
2022/10/18 06:11:23;;;;;;;14.88;7.97;;;;;;;;;;5073880;28;20017;-42
2022/10/18 06:13:49;;;;;;;15.25;8.15;;;;;;;;;;5073720;28;20115;-40
2022/10/18 06:16:15;;;;;;;16.60;9.13;;;;;;;;;;5073702;28;20050;-40
2022/10/18 06:18:41;;;;;;;14.50;7.75;;;;;;;;;;5073515;28;20028;-40
2022/10/18 06:21:07;;;;;;;16.30;8.32;;;;;;;;;;5073377;28;20093;-40
2022/10/18 06:23:33;;;;;;;21.83;9.27;;;;;;;;;;5073304;28;20055;-39
2022/10/18 06:26:03;;;;;;;16.33;8.43;;;;;;;;;;5072266;28;20275;-40
2022/10/18 06:28:29;;;;;;;27.48;9.18;;;;;;;;;;5073176;28;20490;-40
2022/10/18 06:30:54;;;;;;;16.58;8.10;;;;;;;;;;5073126;28;20127;-40
2022/10/18 06:33:20;;;;;;;16.35;8.35;;;;;;;;;;5073431;28;20036;-40
2022/10/18 06:35:55;;;;;;;13.88;8.48;;;;;;;;;;5071658;28;20048;-41
2022/10/18 06:38:21;;;;;;;14.80;8.25;;;;;;;;;;5073127;28;20459;-39
2022/10/18 06:40:47;;;;;;;11.95;8.20;;;;;;;;;;5073200;28;20051;-40
2022/10/18 06:43:12;;;;;;;14.23;6.82;;;;;;;;;;5072972;28;20071;-39
2022/10/18 06:45:38;;;;;;;12.30;7.55;;;;;;;;;;5073003;28;20020;-39
2022/10/18 06:48:03;;;;;;;15.20;8.93;;;;;;;;;;5072874;28;20028;-40
2022/10/18 06:50:29;;;;;;;18.65;10.52;;;;;;;;;;5073195;28;20024;-40
2022/10/18 06:52:55;;;;;;;14.88;7.95;;;;;;;;;;5072667;28;20757;-40
2022/10/18 06:55:21;;;;;;;16.65;8.65;;;;;;;;;;5072944;28;20056;-40
2022/10/18 06:57:53;;;;;;;20.30;8.85;;;;;;;;;;5072899;28;20039;-40
2022/10/18 07:00:18;;;;;;;12.90;7.95;;;;;;;;;;5072938;28;20025;-40
2022/10/18 07:02:51;;;;;;;12.60;8.23;;;;;;;;;;5072495;28;20051;-40
2022/10/18 07:05:16;;;;;;;14.32;7.25;;;;;;;;;;5072571;28;20025;-40
2022/10/18 07:07:48;;;;;;;13.30;7.80;;;;;;;;;;5072440;28;20150;-41
2022/10/18 07:10:13;;;;;;;11.38;7.38;;;;;;;;;;5072350;28;20123;-40
2022/10/18 07:12:45;;;;;;;14.93;8.63;;;;;;;;;;5072555;28;20032;-40
2022/10/18 07:15:10;;;;;;;13.40;7.00;;;;;;;;;;5072352;28;20020;-39
2022/10/18 07:17:45;;;;;;;12.93;8.05;;;;;;;;;;5072338;28;20032;-39
2022/10/18 07:20:11;;;;;;;12.70;7.88;;;;;;;;;;5072336;28;20067;-40
2022/10/18 07:22:43;;;;;;;14.45;7.32;;;;;;;;;;5072191;28;20032;-39
2022/10/18 07:25:08;;;;;;;14.30;8.02;;;;;;;;;;5072346;28;20515;-40
2022/10/18 07:27:41;;;;;;;16.40;7.32;;;;;;;;;;5072144;28;20115;-40
2022/10/18 07:30:07;;;;;;;13.88;7.70;;;;;;;;;;5072088;28;20036;-40
2022/10/18 07:32:39;;;;;;;14.63;8.73;;;;;;;;;;5072327;28;20050;-40
2022/10/18 07:35:18;;;;;;;13.07;6.85;;;;;;;;;;5067982;28;20491;-40
2022/10/18 07:37:50;;;;;;;13.00;8.73;;;;;;;;;;5071749;28;20502;-40
2022/10/18 07:40:15;;;;;;;15.38;8.10;;;;;;;;;;5071902;28;20070;-40
2022/10/18 07:42:47;;;;;;;15.13;8.15;;;;;;;;;;5072024;28;20069;-40
2022/10/18 07:45:12;;;;;;;14.63;7.65;;;;;;;;;;5071983;28;20016;-40
2022/10/18 07:47:38;;;;;;;14.25;7.95;;;;;;;;;;5071869;28;20115;-40
2022/10/18 07:50:04;;;;;;;16.27;8.70;;;;;;;;;;5071596;28;20032;-41
2022/10/18 07:52:29;;;;;;;16.17;7.68;;;;;;;;;;5071839;28;20029;-41
2022/10/18 07:54:54;;;;;;;15.93;7.88;;;;;;;;;;5071853;28;20048;-40
2022/10/18 07:57:20;;;;;;;13.82;7.93;;;;;;;;;;5071626;28;20021;-40
2022/10/18 07:59:47;;;;;;;16.02;8.93;;;;;;;;;;5071548;28;20024;-40
2022/10/18 08:02:12;;;;;;;13.32;7.97;;;;;;;;;;5071633;28;20051;-40
2022/10/18 08:04:37;;;;;;;14.32;8.57;;;;;;;;;;5071783;28;20024;-40
2022/10/18 08:07:03;;;;;;;12.80;8.27;;;;;;;;;;5071665;28;20028;-40
2022/10/18 08:09:29;;;;;;;16.30;7.93;;;;;;;;;;5071453;28;20070;-39
2022/10/18 08:11:54;;;;;;;33.92;10.07;;;;;;;;;;5071354;28;20024;-40
2022/10/18 08:14:19;;;;;;;15.05;8.48;;;;;;;;;;5071452;28;20131;-40
2022/10/18 08:16:45;;;;;;;13.57;8.18;;;;;;;;;;5071392;28;20028;-40
2022/10/18 08:19:10;;;;;;;14.77;8.35;;;;;;;;;;5071283;28;20032;-40
2022/10/18 08:21:36;;;;;;;16.50;7.25;;;;;;;;;;5071438;28;20067;-40
2022/10/18 08:24:02;;;;;;;14.10;8.50;;;;;;;;;;5070031;28;20032;-40
2022/10/18 08:26:27;;;;;;;18.73;9.68;;;;;;;;;;5071314;28;20035;-40
2022/10/18 08:28:53;;;;;;;13.13;7.82;;;;;;;;;;5071096;28;20017;-40
2022/10/18 08:31:19;;;;;;;11.80;7.75;;;;;;;;;;5071269;28;20036;-40
2022/10/18 08:33:44;;;;;;;14.60;8.77;;;;;;;;;;5071485;28;20078;-40
2022/10/18 08:36:11;;;;;;;15.10;7.63;;;;;;;;;;5071261;28;20394;-40
2022/10/18 08:38:37;;;;;;;13.27;7.13;;;;;;;;;;5071281;28;20389;-40
2022/10/18 08:41:20;;;;;;;11.10;7.25;;;;;;;;;;5071113;28;20093;-40
2022/10/18 08:43:50;;;;;;;24.05;7.55;;;;;;;;;;5071265;28;20060;-40
2022/10/18 08:46:15;;;;;;;12.45;6.65;;;;;;;;;;5071128;28;20073;-40
2022/10/18 08:48:43;;;;;;;16.83;8.35;;;;;;;;;;5071918;28;20044;-40
2022/10/18 08:51:35;;;;;;;13.90;8.27;;;;;;;;;;5075025;28;20052;-40
2022/10/18 08:54:14;;;;;;;17.77;9.55;;;;;;;;;;5073856;28;20048;-40
2022/10/18 08:56:41;;;;;;;13.32;7.20;;;;;;;;;;5074954;28;20107;-40
2022/10/18 08:59:08;;;;;;;12.18;7.47;;;;;;;;;;5074932;28;20052;-41
2022/10/18 09:01:34;;;;;;;15.23;8.15;;;;;;;;;;5074975;28;20036;-40
2022/10/18 09:04:18;;;;;;;13.43;7.80;;;;;;;;;;5074805;28;20021;-41
2022/10/18 09:06:48;;;;;;;17.13;8.70;;;;;;;;;;5075027;28;20066;-40
2022/10/18 09:09:37;;;;;;;16.33;8.30;;;;;;;;;;5074732;28;20033;-40
2022/10/18 09:12:21;;;;;;;12.52;8.00;;;;;;;;;;5074651;28;20090;-41
2022/10/18 09:15:00;;;;;;;12.13;6.40;;;;;;;;;;5074892;28;20118;-40
2022/10/18 09:17:25;;;;;;;17.58;8.43;;;;;;;;;;5074563;28;20032;-40
2022/10/18 09:19:54;;;;;;;12.02;8.02;;;;;;;;;;5074489;28;20099;-40
2022/10/18 09:22:24;;;;;;;14.68;8.32;;;;;;;;;;5074612;28;20060;-40
2022/10/18 09:24:57;;;;;;;11.52;7.13;;;;;;;;;;5074283;28;20032;-41
2022/10/18 09:27:27;;;;;;;13.02;7.55;;;;;;;;;;5074748;28;20417;-41
2022/10/18 09:30:13;;;;;;;15.98;8.60;;;;;;;;;;5074119;28;20040;-40
2022/10/18 09:32:58;;;;;;;15.57;8.52;;;;;;;;;;5070322;28;20120;-41
2022/10/18 09:35:28;;;;;;;13.50;7.32;;;;;;;;;;5072891;28;20574;-40
2022/10/18 09:37:58;;;;;;;12.70;9.10;;;;;;;;;;5072784;28;20031;-40
2022/10/18 09:40:25;;;;;;;18.83;8.57;;;;;;;;;;5074237;28;20035;-40
2022/10/18 09:43:11;;;;;;;13.80;8.02;;;;;;;;;;5074392;28;20024;-40
2022/10/18 09:45:41;;;;;;;17.50;8.32;;;;;;;;;;5070039;28;20053;-41
2022/10/18 09:48:13;;;;;;;32.00;8.82;;;;;;;;;;5073978;28;20028;-40
2022/10/18 09:50:41;;;;;;;15.20;7.90;;;;;;;;;;5074086;28;20379;-40
2022/10/18 09:53:15;;;;;;;13.77;9.43;;;;;;;;;;5074125;28;20013;-40
2022/10/18 09:56:00;;;;;;;16.00;9.65;;;;;;;;;;5073898;28;20115;-40
2022/10/18 09:58:27;;;;;;;14.93;7.97;;;;;;;;;;5074138;28;20446;-40
2022/10/18 10:00:54;;;;;;;15.27;8.98;;;;;;;;;;5072432;28;20027;-40
2022/10/18 10:03:20;;;;;;;16.17;8.50;;;;;;;;;;5073860;28;20035;-41
2022/10/18 10:05:45;;;;;;;17.73;8.65;;;;;;;;;;5073580;28;20021;-40
2022/10/18 10:08:11;;;;;;;14.98;8.77;;;;;;;;;;5073580;28;20127;-40
2022/10/18 10:10:45;;;;;;;21.50;9.73;;;;;;;;;;5073703;28;20032;-40
2022/10/18 10:13:15;;;;;;;17.42;8.25;;;;;;;;;;5073510;28;20036;-41
2022/10/18 10:15:45;;;;;;;14.38;7.90;;;;;;;;;;5073467;28;20482;-40
2022/10/18 10:18:17;;;;;;;18.80;9.05;;;;;;;;;;5073509;28;20467;-40
2022/10/18 10:20:44;;;;;;;14.70;9.25;;;;;;;;;;5073668;28;20032;-41
2022/10/18 10:23:15;;;;;;;14.63;7.70;;;;;;;;;;5072100;28;20031;-40
2022/10/18 10:25:41;;;;;;;16.20;9.63;;;;;;;;;;5073356;28;20036;-40
2022/10/18 10:28:14;;;;;;;19.13;10.13;;;;;;;;;;5073146;28;20020;-40
2022/10/18 10:30:40;;;;;;;15.18;8.35;;;;;;;;;;5073211;28;20033;-40
2022/10/18 10:33:05;;;;;;;14.43;7.93;;;;;;;;;;5073093;28;20152;-40
2022/10/18 10:35:38;;;;;;;16.80;9.27;;;;;;;;;;5072869;28;20052;-40
2022/10/18 10:38:04;;;;;;;11.65;8.07;;;;;;;;;;5073061;28;20028;-40
2022/10/18 10:40:30;;;;;;;16.45;9.23;;;;;;;;;;5073423;28;20023;-41
2022/10/18 10:43:12;;;;;;;16.48;9.40;;;;;;;;;;5073212;28;20032;-40
2022/10/18 10:45:56;;;;;;;16.60;8.95;;;;;;;;;;5072993;28;20151;-40
2022/10/18 10:48:22;;;;;;;13.65;7.78;;;;;;;;;;5073069;28;20036;-41
2022/10/18 10:50:49;;;;;;;15.25;9.10;;;;;;;;;;5073137;28;20028;-40
2022/10/18 10:53:29;;;;;;;19.83;9.80;;;;;;;;;;5073138;28;20051;-41
2022/10/18 10:55:55;;;;;;;18.23;8.88;;;;;;;;;;5072867;28;20025;-41
2022/10/18 10:58:21;;;;;;;17.30;9.07;;;;;;;;;;5072666;28;20025;-40
2022/10/18 11:00:47;;;;;;;13.27;7.65;;;;;;;;;;5072973;28;20028;-41
2022/10/18 11:03:17;;;;;;;14.77;7.13;;;;;;;;;;5072448;28;20024;-41
2022/10/18 11:05:44;;;;;;;14.70;7.32;;;;;;;;;;5072802;28;20063;-40
2022/10/18 11:08:10;;;;;;;13.98;8.73;;;;;;;;;;5072669;28;20379;-41
2022/10/18 11:10:48;;;;;;;14.35;7.75;;;;;;;;;;5072681;28;20440;-40
2022/10/18 11:13:16;;;;;;;13.13;8.35;;;;;;;;;;5072094;28;20028;-40
2022/10/18 11:15:47;;;;;;;12.68;7.35;;;;;;;;;;5072341;28;20032;-41
2022/10/18 11:18:21;;;;;;;14.25;9.00;;;;;;;;;;5072192;28;20428;-40
2022/10/18 11:20:52;;;;;;;15.18;7.30;;;;;;;;;;5072534;28;20106;-41
2022/10/18 11:23:17;;;;;;;16.48;9.05;;;;;;;;;;5072215;28;20035;-41
2022/10/18 11:25:43;;;;;;;15.88;9.38;;;;;;;;;;5072045;28;20028;-41
2022/10/18 11:28:20;;;;;;;16.73;8.57;;;;;;;;;;5072069;28;20013;-40
2022/10/18 11:30:59;;;;;;;19.67;7.82;;;;;;;;;;5072130;28;20115;-41
2022/10/18 11:33:27;;;;;;;16.98;8.68;;;;;;;;;;5072077;28;20040;-40
2022/10/18 11:35:56;;;;;;;15.00;9.15;;;;;;;;;;5071816;28;20158;-41
2022/10/18 11:38:36;;;;;;;13.35;8.63;;;;;;;;;;5072170;28;20048;-40
2022/10/18 11:41:10;;;;;;;15.52;9.00;;;;;;;;;;5071815;28;20032;-41
2022/10/18 11:43:51;;;;;;;14.48;8.00;;;;;;;;;;5072043;28;20566;-40
2022/10/18 11:46:24;;;;;;;12.90;7.72;;;;;;;;;;5071753;28;20498;-40
2022/10/18 11:48:52;;;;;;;14.63;7.13;;;;;;;;;;5071730;28;20024;-40
2022/10/18 11:51:29;;;;;;;16.13;8.15;;;;;;;;;;5072100;28;20058;-41
2022/10/18 11:53:55;;;;;;;13.73;7.80;;;;;;;;;;5070273;28;20044;-41
2022/10/18 11:56:24;;;;;;;16.70;8.82;;;;;;;;;;5071611;28;20036;-40
2022/10/18 11:58:52;;;;;;;16.00;9.05;;;;;;;;;;5071655;28;20040;-40
2022/10/18 12:01:27;;;;;;;19.13;9.73;;;;;;;;;;5071578;28;20095;-40
2022/10/18 12:03:56;;;;;;;18.30;9.70;;;;;;;;;;5071608;28;20024;-41
2022/10/18 12:06:24;;;;;;;17.27;8.75;;;;;;;;;;5071490;28;20482;-41
2022/10/18 12:08:56;;;;;;;13.00;8.02;;;;;;;;;;5071341;28;20044;-41
2022/10/18 12:11:42;;;;;;;16.45;8.70;;;;;;;;;;5071574;28;20028;-40
2022/10/18 12:14:26;;;;;;;16.70;9.95;;;;;;;;;;5071424;28;20047;-41
2022/10/18 12:16:53;;;;;;;20.05;9.95;;;;;;;;;;5071562;28;20037;-40
2022/10/18 12:19:23;;;;;;;13.45;8.10;;;;;;;;;;5071466;28;20026;-41
2022/10/18 12:21:48;;;;;;;16.50;8.80;;;;;;;;;;5071350;28;20037;-41
2022/10/18 12:24:17;;;;;;;24.67;10.27;;;;;;;;;;5070770;28;20070;-40
2022/10/18 12:26:44;;;;;;;20.75;9.65;;;;;;;;;;5071587;28;20039;-41
2022/10/18 12:29:27;;;;;;;16.42;9.05;;;;;;;;;;5071462;28;20424;-40
2022/10/18 12:31:53;;;;;;;16.08;8.40;;;;;;;;;;5071500;28;20025;-41
2022/10/18 12:34:21;;;;;;;16.77;8.90;;;;;;;;;;5071363;28;20043;-40
2022/10/18 12:36:52;;;;;;;15.75;9.13;;;;;;;;;;5071098;28;20052;-41
2022/10/18 12:39:22;;;;;;;13.18;8.15;;;;;;;;;;5070343;28;20086;-40
2022/10/18 12:41:52;;;;;;;21.05;11.43;;;;;;;;;;5071531;28;20028;-40
2022/10/18 12:44:23;;;;;;;18.20;11.20;;;;;;;;;;5071201;28;20043;-40
2022/10/18 12:46:50;;;;;;;21.45;9.70;;;;;;;;;;5071167;28;20379;-41
2022/10/18 12:49:17;;;;;;;19.25;9.75;;;;;;;;;;5070986;28;20513;-40
2022/10/18 12:51:51;;;;;;;20.55;9.32;;;;;;;;;;5071438;28;20116;-41
2022/10/18 12:54:19;;;;;;;14.32;8.25;;;;;;;;;;5071436;28;20032;-40
2022/10/18 12:56:45;;;;;;;18.30;9.52;;;;;;;;;;5071033;28;20021;-41
2022/10/18 12:59:14;;;;;;;18.48;9.73;;;;;;;;;;5071005;28;20048;-40
2022/10/18 13:01:51;;;;;;;27.23;10.57;;;;;;;;;;5071273;28;20020;-40
2022/10/18 13:04:26;;;;;;;38.33;9.82;;;;;;;;;;5070999;28;20452;-41
2022/10/18 13:07:03;;;;;;;13.05;8.60;;;;;;;;;;5070921;28;20028;-40
2022/10/18 13:09:36;;;;;;;17.33;9.90;;;;;;;;;;5070955;28;20043;-40
2022/10/18 13:12:13;;;;;;;20.15;9.80;;;;;;;;;;5070860;28;20024;-41
2022/10/18 13:14:57;;;;;;;16.83;9.60;;;;;;;;;;5071163;28;20372;-41
2022/10/18 13:17:25;;;;;;;16.83;9.93;;;;;;;;;;5069595;28;20032;-41
2022/10/18 13:20:10;;;;;;;17.30;9.05;;;;;;;;;;5070815;28;20016;-41
2022/10/18 13:22:38;;;;;;;16.95;10.32;;;;;;;;;;5070812;28;20031;-41
2022/10/18 13:25:09;;;;;;;16.90;10.38;;;;;;;;;;5070546;28;20482;-40
2022/10/18 13:27:48;;;;;;;14.90;9.90;;;;;;;;;;5071108;28;20481;-40
2022/10/18 13:30:13;;;;;;;20.52;10.80;;;;;;;;;;5070649;28;20043;-40
2022/10/18 13:32:48;;;;;;;18.58;11.27;;;;;;;;;;5070708;28;20020;-41
2022/10/18 13:35:32;;;;;;;18.98;11.02;;;;;;;;;;5071666;28;20049;-41
2022/10/18 13:37:58;;;;;;;21.98;10.75;;;;;;;;;;5073020;28;20115;-40
2022/10/18 13:40:24;;;;;;;14.57;10.05;;;;;;;;;;5074183;28;20024;-40
2022/10/18 13:42:50;;;;;;;20.80;10.57;;;;;;;;;;5072927;28;20035;-40
2022/10/18 13:45:35;;;;;;;18.52;10.60;;;;;;;;;;5074275;28;20023;-41
2022/10/18 13:48:19;;;;;;;18.05;9.68;;;;;;;;;;5073892;28;20045;-41
2022/10/18 13:50:47;;;;;;;21.40;12.00;;;;;;;;;;5074073;28;20470;-40
2022/10/18 13:53:35;;;;;;;30.63;12.90;;;;;;;;;;5073568;28;20028;-40
2022/10/18 13:56:29;;;;;;;22.05;10.80;;;;;;;;;;5073861;28;20032;-40
2022/10/18 13:59:12;;;;;;;26.33;12.80;;;;;;;;;;5073872;28;20060;-41
2022/10/18 14:01:43;;;;;;;21.33;10.93;;;;;;;;;;5073846;28;20031;-40
2022/10/18 14:04:18;;;;;;;31.02;11.93;;;;;;;;;;5073972;28;20112;-40
2022/10/18 14:06:45;;;;;;;26.98;11.60;;;;;;;;;;5073677;28;20028;-41
2022/10/18 14:09:17;;;;;;;24.60;12.60;;;;;;;;;;5072331;28;20028;-40
2022/10/18 14:11:45;;;;;;;22.20;11.40;;;;;;;;;;5073669;28;20039;-40
2022/10/18 14:14:10;;;;;;;32.38;14.18;;;;;;;;;;5073867;28;20268;-40
2022/10/18 14:16:57;;;;;;;29.17;14.77;;;;;;;;;;5073419;28;20506;-40
2022/10/18 14:19:35;;;;;;;22.05;12.65;;;;;;;;;;5073519;28;20548;-40
2022/10/18 14:22:10;;;;;;;20.30;10.52;;;;;;;;;;5073725;28;20378;-41
2022/10/18 14:24:37;;;;;;;28.38;11.45;;;;;;;;;;5073435;28;20036;-40
2022/10/18 14:27:32;;;;;;;22.85;12.43;;;;;;;;;;5073561;28;20021;-40
2022/10/18 14:30:14;;;;;;;22.38;11.55;;;;;;;;;;5068455;28;20131;-41
2022/10/18 14:32:45;;;;;;;23.50;10.98;;;;;;;;;;5073335;28;20474;-40
2022/10/18 14:35:23;;;;;;;27.15;13.02;;;;;;;;;;5073184;28;20033;-40
2022/10/18 14:37:50;;;;;;;22.33;11.23;;;;;;;;;;5073177;28;20103;-40
2022/10/18 14:40:25;;;;;;;20.80;11.25;;;;;;;;;;5073300;28;20037;-41